sensor_id;sensor_type;location;lat;lon;timestamp;P1;durP1;ratioP1;P2;durP2;ratioP2
38224;SDS011;24025;48.138;11.428;2023-12-07T00:00:06;9.57;;;5.13;;
38224;SDS011;24025;48.138;11.428;2023-12-07T00:02:38;8.38;;;4.90;;
38224;SDS011;24025;48.138;11.428;2023-12-07T00:05:12;8.10;;;4.88;;
38224;SDS011;24025;48.138;11.428;2023-12-07T00:07:44;9.63;;;5.22;;
38224;SDS011;24025;48.138;11.428;2023-12-07T00:10:15;8.70;;;4.93;;
38224;SDS011;24025;48.138;11.428;2023-12-07T00:12:48;7.47;;;4.78;;
38224;SDS011;24025;48.138;11.428;2023-12-07T00:15:19;12.15;;;5.55;;
38224;SDS011;24025;48.138;11.428;2023-12-07T00:17:51;10.87;;;5.53;;
38224;SDS011;24025;48.138;11.428;2023-12-07T00:20:22;8.07;;;5.18;;
38224;SDS011;24025;48.138;11.428;2023-12-07T00:22:54;10.23;;;5.68;;
38224;SDS011;24025;48.138;11.428;2023-12-07T00:25:26;8.73;;;5.13;;
38224;SDS011;24025;48.138;11.428;2023-12-07T00:28:00;8.95;;;5.70;;
38224;SDS011;24025;48.138;11.428;2023-12-07T00:30:32;7.68;;;5.07;;
38224;SDS011;24025;48.138;11.428;2023-12-07T00:33:05;6.85;;;4.53;;
38224;SDS011;24025;48.138;11.428;2023-12-07T00:35:37;9.70;;;5.63;;
38224;SDS011;24025;48.138;11.428;2023-12-07T00:38:09;8.60;;;5.32;;
38224;SDS011;24025;48.138;11.428;2023-12-07T00:43:14;7.60;;;4.80;;
38224;SDS011;24025;48.138;11.428;2023-12-07T00:45:46;7.50;;;4.93;;
38224;SDS011;24025;48.138;11.428;2023-12-07T00:48:20;7.18;;;4.95;;
38224;SDS011;24025;48.138;11.428;2023-12-07T00:50:51;7.43;;;5.03;;
38224;SDS011;24025;48.138;11.428;2023-12-07T00:53:23;9.15;;;5.38;;
38224;SDS011;24025;48.138;11.428;2023-12-07T00:55:55;8.95;;;5.22;;
38224;SDS011;24025;48.138;11.428;2023-12-07T00:58:26;9.05;;;5.63;;
38224;SDS011;24025;48.138;11.428;2023-12-07T01:00:58;7.53;;;4.82;;
38224;SDS011;24025;48.138;11.428;2023-12-07T01:03:30;8.00;;;5.53;;
38224;SDS011;24025;48.138;11.428;2023-12-07T01:06:01;14.95;;;6.75;;
38224;SDS011;24025;48.138;11.428;2023-12-07T01:08:33;10.25;;;5.57;;
38224;SDS011;24025;48.138;11.428;2023-12-07T01:11:05;10.87;;;6.03;;
38224;SDS011;24025;48.138;11.428;2023-12-07T01:13:36;11.23;;;6.47;;
38224;SDS011;24025;48.138;11.428;2023-12-07T01:16:08;10.75;;;6.40;;
38224;SDS011;24025;48.138;11.428;2023-12-07T01:18:40;13.43;;;6.63;;
38224;SDS011;24025;48.138;11.428;2023-12-07T01:21:12;8.93;;;5.47;;
38224;SDS011;24025;48.138;11.428;2023-12-07T01:23:43;12.07;;;6.63;;
38224;SDS011;24025;48.138;11.428;2023-12-07T01:26:15;10.63;;;6.38;;
38224;SDS011;24025;48.138;11.428;2023-12-07T01:28:47;13.25;;;7.40;;
38224;SDS011;24025;48.138;11.428;2023-12-07T01:31:18;10.17;;;5.97;;
38224;SDS011;24025;48.138;11.428;2023-12-07T01:33:50;10.80;;;5.75;;
38224;SDS011;24025;48.138;11.428;2023-12-07T01:36:22;10.60;;;6.85;;
38224;SDS011;24025;48.138;11.428;2023-12-07T01:38:53;11.75;;;6.07;;
38224;SDS011;24025;48.138;11.428;2023-12-07T01:41:25;10.17;;;6.43;;
38224;SDS011;24025;48.138;11.428;2023-12-07T01:43:56;9.88;;;5.78;;
38224;SDS011;24025;48.138;11.428;2023-12-07T01:46:28;13.65;;;6.65;;
38224;SDS011;24025;48.138;11.428;2023-12-07T01:49:00;13.07;;;6.28;;
38224;SDS011;24025;48.138;11.428;2023-12-07T01:51:33;14.63;;;7.20;;
38224;SDS011;24025;48.138;11.428;2023-12-07T01:54:04;12.18;;;6.30;;
38224;SDS011;24025;48.138;11.428;2023-12-07T01:56:36;10.40;;;6.60;;
38224;SDS011;24025;48.138;11.428;2023-12-07T01:59:08;15.07;;;7.40;;
38224;SDS011;24025;48.138;11.428;2023-12-07T02:04:12;15.00;;;6.78;;
38224;SDS011;24025;48.138;11.428;2023-12-07T02:06:43;10.88;;;6.25;;
38224;SDS011;24025;48.138;11.428;2023-12-07T02:09:16;13.07;;;6.50;;
38224;SDS011;24025;48.138;11.428;2023-12-07T02:11:47;14.75;;;6.80;;
38224;SDS011;24025;48.138;11.428;2023-12-07T02:14:19;10.30;;;6.85;;
38224;SDS011;24025;48.138;11.428;2023-12-07T02:16:52;11.45;;;6.05;;
38224;SDS011;24025;48.138;11.428;2023-12-07T02:22:36;12.10;;;6.47;;
38224;SDS011;24025;48.138;11.428;2023-12-07T02:25:13;10.20;;;6.80;;
38224;SDS011;24025;48.138;11.428;2023-12-07T02:27:49;11.30;;;6.78;;
38224;SDS011;24025;48.138;11.428;2023-12-07T02:30:20;9.77;;;6.45;;
38224;SDS011;24025;48.138;11.428;2023-12-07T02:32:52;12.38;;;6.72;;
38224;SDS011;24025;48.138;11.428;2023-12-07T02:35:24;12.95;;;6.95;;
38224;SDS011;24025;48.138;11.428;2023-12-07T02:37:56;13.85;;;7.13;;
38224;SDS011;24025;48.138;11.428;2023-12-07T02:40:29;9.73;;;6.30;;
38224;SDS011;24025;48.138;11.428;2023-12-07T02:43:01;12.23;;;6.38;;
38224;SDS011;24025;48.138;11.428;2023-12-07T02:45:35;11.77;;;7.20;;
38224;SDS011;24025;48.138;11.428;2023-12-07T02:48:07;11.63;;;6.65;;
38224;SDS011;24025;48.138;11.428;2023-12-07T02:50:39;10.38;;;6.13;;
38224;SDS011;24025;48.138;11.428;2023-12-07T02:53:10;10.27;;;6.13;;
38224;SDS011;24025;48.138;11.428;2023-12-07T02:55:43;11.02;;;6.82;;
38224;SDS011;24025;48.138;11.428;2023-12-07T02:58:14;14.65;;;7.28;;
38224;SDS011;24025;48.138;11.428;2023-12-07T03:00:46;14.65;;;6.10;;
38224;SDS011;24025;48.138;11.428;2023-12-07T03:03:18;11.48;;;6.90;;
38224;SDS011;24025;48.138;11.428;2023-12-07T03:05:49;13.98;;;6.35;;
38224;SDS011;24025;48.138;11.428;2023-12-07T03:08:21;16.02;;;7.05;;
38224;SDS011;24025;48.138;11.428;2023-12-07T03:10:53;11.20;;;6.70;;
38224;SDS011;24025;48.138;11.428;2023-12-07T03:13:24;12.83;;;6.37;;
38224;SDS011;24025;48.138;11.428;2023-12-07T03:15:56;11.55;;;6.57;;
38224;SDS011;24025;48.138;11.428;2023-12-07T03:18:27;13.43;;;6.53;;
38224;SDS011;24025;48.138;11.428;2023-12-07T03:21:01;11.73;;;6.95;;
38224;SDS011;24025;48.138;11.428;2023-12-07T03:23:33;11.05;;;7.03;;
38224;SDS011;24025;48.138;11.428;2023-12-07T03:26:04;14.00;;;6.97;;
38224;SDS011;24025;48.138;11.428;2023-12-07T03:28:36;14.48;;;7.10;;
38224;SDS011;24025;48.138;11.428;2023-12-07T03:31:09;10.02;;;5.97;;
38224;SDS011;24025;48.138;11.428;2023-12-07T03:33:41;11.48;;;6.97;;
38224;SDS011;24025;48.138;11.428;2023-12-07T03:36:13;13.98;;;6.97;;
38224;SDS011;24025;48.138;11.428;2023-12-07T03:38:45;13.00;;;6.45;;
38224;SDS011;24025;48.138;11.428;2023-12-07T03:41:17;12.95;;;6.50;;
38224;SDS011;24025;48.138;11.428;2023-12-07T03:43:48;11.50;;;6.30;;
38224;SDS011;24025;48.138;11.428;2023-12-07T03:46:20;11.13;;;5.80;;
38224;SDS011;24025;48.138;11.428;2023-12-07T03:48:51;10.68;;;5.88;;
38224;SDS011;24025;48.138;11.428;2023-12-07T03:51:23;11.93;;;6.15;;
38224;SDS011;24025;48.138;11.428;2023-12-07T03:53:56;11.85;;;6.20;;
38224;SDS011;24025;48.138;11.428;2023-12-07T03:56:28;10.98;;;6.00;;
38224;SDS011;24025;48.138;11.428;2023-12-07T03:59:00;11.65;;;6.40;;
38224;SDS011;24025;48.138;11.428;2023-12-07T04:01:32;10.65;;;5.95;;
38224;SDS011;24025;48.138;11.428;2023-12-07T04:04:04;12.35;;;6.32;;
38224;SDS011;24025;48.138;11.428;2023-12-07T04:06:36;12.05;;;5.82;;
38224;SDS011;24025;48.138;11.428;2023-12-07T04:09:08;11.27;;;5.55;;
38224;SDS011;24025;48.138;11.428;2023-12-07T04:11:39;15.63;;;5.50;;
38224;SDS011;24025;48.138;11.428;2023-12-07T04:14:11;11.07;;;5.83;;
38224;SDS011;24025;48.138;11.428;2023-12-07T04:16:43;11.23;;;6.13;;
38224;SDS011;24025;48.138;11.428;2023-12-07T04:19:14;11.15;;;6.78;;
38224;SDS011;24025;48.138;11.428;2023-12-07T04:21:46;12.65;;;6.10;;
38224;SDS011;24025;48.138;11.428;2023-12-07T04:24:18;12.07;;;6.47;;
38224;SDS011;24025;48.138;11.428;2023-12-07T04:26:49;9.27;;;6.15;;
38224;SDS011;24025;48.138;11.428;2023-12-07T04:29:21;19.08;;;6.43;;
38224;SDS011;24025;48.138;11.428;2023-12-07T04:31:53;11.07;;;5.40;;
38224;SDS011;24025;48.138;11.428;2023-12-07T04:34:24;9.32;;;5.40;;
38224;SDS011;24025;48.138;11.428;2023-12-07T04:36:56;13.25;;;5.85;;
38224;SDS011;24025;48.138;11.428;2023-12-07T04:39:28;11.65;;;5.28;;
38224;SDS011;24025;48.138;11.428;2023-12-07T04:42:00;8.40;;;5.00;;
38224;SDS011;24025;48.138;11.428;2023-12-07T04:44:31;11.63;;;5.77;;
38224;SDS011;24025;48.138;11.428;2023-12-07T04:47:03;9.63;;;4.85;;
38224;SDS011;24025;48.138;11.428;2023-12-07T04:49:35;9.40;;;5.15;;
38224;SDS011;24025;48.138;11.428;2023-12-07T04:52:06;9.37;;;5.50;;
38224;SDS011;24025;48.138;11.428;2023-12-07T04:54:38;9.30;;;5.18;;
38224;SDS011;24025;48.138;11.428;2023-12-07T04:57:10;8.50;;;5.07;;
38224;SDS011;24025;48.138;11.428;2023-12-07T04:59:41;9.93;;;5.65;;
38224;SDS011;24025;48.138;11.428;2023-12-07T05:02:18;8.18;;;4.97;;
38224;SDS011;24025;48.138;11.428;2023-12-07T05:04:50;11.23;;;4.85;;
38224;SDS011;24025;48.138;11.428;2023-12-07T05:07:21;8.77;;;4.33;;
38224;SDS011;24025;48.138;11.428;2023-12-07T05:09:53;12.02;;;4.85;;
38224;SDS011;24025;48.138;11.428;2023-12-07T05:12:25;10.30;;;5.00;;
38224;SDS011;24025;48.138;11.428;2023-12-07T05:14:56;7.78;;;4.75;;
38224;SDS011;24025;48.138;11.428;2023-12-07T05:17:28;11.85;;;5.72;;
38224;SDS011;24025;48.138;11.428;2023-12-07T05:20:00;13.48;;;5.60;;
38224;SDS011;24025;48.138;11.428;2023-12-07T05:22:33;8.32;;;4.70;;
38224;SDS011;24025;48.138;11.428;2023-12-07T05:25:04;10.70;;;4.88;;
38224;SDS011;24025;48.138;11.428;2023-12-07T05:27:36;11.70;;;4.80;;
38224;SDS011;24025;48.138;11.428;2023-12-07T05:30:08;10.52;;;5.30;;
38224;SDS011;24025;48.138;11.428;2023-12-07T05:32:40;7.18;;;4.47;;
38224;SDS011;24025;48.138;11.428;2023-12-07T05:35:12;12.40;;;4.70;;
38224;SDS011;24025;48.138;11.428;2023-12-07T05:37:43;8.75;;;4.35;;
38224;SDS011;24025;48.138;11.428;2023-12-07T05:40:15;7.90;;;4.78;;
38224;SDS011;24025;48.138;11.428;2023-12-07T05:42:49;10.65;;;4.68;;
38224;SDS011;24025;48.138;11.428;2023-12-07T05:45:21;8.65;;;3.92;;
38224;SDS011;24025;48.138;11.428;2023-12-07T05:47:53;11.45;;;4.20;;
38224;SDS011;24025;48.138;11.428;2023-12-07T05:50:25;6.72;;;4.18;;
38224;SDS011;24025;48.138;11.428;2023-12-07T05:58:02;7.78;;;3.75;;
38224;SDS011;24025;48.138;11.428;2023-12-07T06:00:35;5.82;;;3.47;;
38224;SDS011;24025;48.138;11.428;2023-12-07T06:03:09;4.82;;;3.58;;
38224;SDS011;24025;48.138;11.428;2023-12-07T06:05:41;6.72;;;3.80;;
38224;SDS011;24025;48.138;11.428;2023-12-07T06:08:13;7.20;;;4.25;;
38224;SDS011;24025;48.138;11.428;2023-12-07T06:10:44;6.60;;;4.07;;
38224;SDS011;24025;48.138;11.428;2023-12-07T06:13:16;16.50;;;6.50;;
38224;SDS011;24025;48.138;11.428;2023-12-07T06:15:47;7.15;;;4.45;;
38224;SDS011;24025;48.138;11.428;2023-12-07T06:18:19;10.32;;;5.13;;
38224;SDS011;24025;48.138;11.428;2023-12-07T06:20:54;11.38;;;4.40;;
38224;SDS011;24025;48.138;11.428;2023-12-07T06:23:26;6.95;;;4.15;;
38224;SDS011;24025;48.138;11.428;2023-12-07T06:25:57;7.67;;;3.97;;
38224;SDS011;24025;48.138;11.428;2023-12-07T06:28:29;8.18;;;4.07;;
38224;SDS011;24025;48.138;11.428;2023-12-07T06:31:06;6.00;;;4.00;;
38224;SDS011;24025;48.138;11.428;2023-12-07T06:33:38;6.07;;;3.90;;
38224;SDS011;24025;48.138;11.428;2023-12-07T06:36:17;9.63;;;3.90;;
38224;SDS011;24025;48.138;11.428;2023-12-07T06:38:50;6.90;;;3.97;;
38224;SDS011;24025;48.138;11.428;2023-12-07T06:41:22;5.60;;;3.47;;
38224;SDS011;24025;48.138;11.428;2023-12-07T06:43:54;6.97;;;3.78;;
38224;SDS011;24025;48.138;11.428;2023-12-07T06:46:27;4.75;;;2.85;;
38224;SDS011;24025;48.138;11.428;2023-12-07T06:48:59;7.03;;;3.95;;
38224;SDS011;24025;48.138;11.428;2023-12-07T06:51:31;6.65;;;3.33;;
38224;SDS011;24025;48.138;11.428;2023-12-07T06:54:03;4.97;;;3.40;;
38224;SDS011;24025;48.138;11.428;2023-12-07T06:56:35;7.85;;;3.30;;
38224;SDS011;24025;48.138;11.428;2023-12-07T06:59:06;6.82;;;2.90;;
38224;SDS011;24025;48.138;11.428;2023-12-07T07:01:39;5.82;;;2.78;;
38224;SDS011;24025;48.138;11.428;2023-12-07T07:04:11;6.55;;;3.65;;
38224;SDS011;24025;48.138;11.428;2023-12-07T07:06:42;6.22;;;4.00;;
38224;SDS011;24025;48.138;11.428;2023-12-07T07:09:15;6.90;;;3.38;;
38224;SDS011;24025;48.138;11.428;2023-12-07T07:11:47;6.05;;;3.78;;
38224;SDS011;24025;48.138;11.428;2023-12-07T07:14:19;5.60;;;3.53;;
38224;SDS011;24025;48.138;11.428;2023-12-07T07:16:51;8.10;;;3.53;;
38224;SDS011;24025;48.138;11.428;2023-12-07T07:19:23;5.43;;;3.40;;
38224;SDS011;24025;48.138;11.428;2023-12-07T07:21:55;6.38;;;3.40;;
38224;SDS011;24025;48.138;11.428;2023-12-07T07:24:26;7.32;;;3.35;;
38224;SDS011;24025;48.138;11.428;2023-12-07T07:26:59;10.07;;;3.90;;
38224;SDS011;24025;48.138;11.428;2023-12-07T07:29:31;5.75;;;3.40;;
38224;SDS011;24025;48.138;11.428;2023-12-07T07:32:04;6.45;;;3.33;;
38224;SDS011;24025;48.138;11.428;2023-12-07T07:34:37;6.15;;;3.65;;
38224;SDS011;24025;48.138;11.428;2023-12-07T07:37:08;16.98;;;6.88;;
38224;SDS011;24025;48.138;11.428;2023-12-07T07:39:40;13.48;;;7.40;;
38224;SDS011;24025;48.138;11.428;2023-12-07T07:42:12;8.00;;;4.82;;
38224;SDS011;24025;48.138;11.428;2023-12-07T07:44:43;7.57;;;4.07;;
38224;SDS011;24025;48.138;11.428;2023-12-07T07:47:15;8.13;;;4.10;;
38224;SDS011;24025;48.138;11.428;2023-12-07T07:49:46;9.95;;;4.63;;
38224;SDS011;24025;48.138;11.428;2023-12-07T07:52:19;14.85;;;4.30;;
38224;SDS011;24025;48.138;11.428;2023-12-07T07:54:51;6.75;;;3.75;;
38224;SDS011;24025;48.138;11.428;2023-12-07T07:57:23;8.43;;;3.47;;
38224;SDS011;24025;48.138;11.428;2023-12-07T07:59:55;5.88;;;3.42;;
38224;SDS011;24025;48.138;11.428;2023-12-07T08:02:26;4.83;;;3.23;;
38224;SDS011;24025;48.138;11.428;2023-12-07T08:04:58;6.68;;;3.90;;
38224;SDS011;24025;48.138;11.428;2023-12-07T08:07:30;6.22;;;3.80;;
38224;SDS011;24025;48.138;11.428;2023-12-07T08:10:01;8.18;;;3.60;;
38224;SDS011;24025;48.138;11.428;2023-12-07T08:12:35;6.85;;;3.60;;
38224;SDS011;24025;48.138;11.428;2023-12-07T08:15:07;6.05;;;3.22;;
38224;SDS011;24025;48.138;11.428;2023-12-07T08:17:42;4.03;;;2.67;;
38224;SDS011;24025;48.138;11.428;2023-12-07T08:20:14;6.15;;;3.90;;
38224;SDS011;24025;48.138;11.428;2023-12-07T08:22:46;5.32;;;3.13;;
38224;SDS011;24025;48.138;11.428;2023-12-07T08:25:17;5.78;;;3.17;;
38224;SDS011;24025;48.138;11.428;2023-12-07T08:27:49;10.00;;;4.15;;
38224;SDS011;24025;48.138;11.428;2023-12-07T08:30:21;8.53;;;3.67;;
38224;SDS011;24025;48.138;11.428;2023-12-07T08:32:52;5.32;;;3.33;;
38224;SDS011;24025;48.138;11.428;2023-12-07T08:35:24;5.82;;;2.97;;
38224;SDS011;24025;48.138;11.428;2023-12-07T08:37:56;5.63;;;3.00;;
38224;SDS011;24025;48.138;11.428;2023-12-07T08:40:27;11.80;;;3.40;;
38224;SDS011;24025;48.138;11.428;2023-12-07T08:42:59;4.50;;;3.00;;
38224;SDS011;24025;48.138;11.428;2023-12-07T08:45:30;11.20;;;3.45;;
38224;SDS011;24025;48.138;11.428;2023-12-07T08:48:02;8.70;;;3.33;;
38224;SDS011;24025;48.138;11.428;2023-12-07T08:50:34;4.72;;;2.67;;
38224;SDS011;24025;48.138;11.428;2023-12-07T08:53:05;6.87;;;3.00;;
38224;SDS011;24025;48.138;11.428;2023-12-07T08:55:39;5.45;;;2.85;;
38224;SDS011;24025;48.138;11.428;2023-12-07T08:58:11;7.28;;;3.33;;
38224;SDS011;24025;48.138;11.428;2023-12-07T09:00:42;7.20;;;3.20;;
38224;SDS011;24025;48.138;11.428;2023-12-07T09:03:15;4.85;;;3.33;;
38224;SDS011;24025;48.138;11.428;2023-12-07T09:05:46;4.25;;;3.08;;
38224;SDS011;24025;48.138;11.428;2023-12-07T09:08:18;5.47;;;3.20;;
38224;SDS011;24025;48.138;11.428;2023-12-07T09:10:50;3.67;;;2.85;;
38224;SDS011;24025;48.138;11.428;2023-12-07T09:13:22;8.30;;;2.85;;
38224;SDS011;24025;48.138;11.428;2023-12-07T09:15:54;6.15;;;2.97;;
38224;SDS011;24025;48.138;11.428;2023-12-07T09:18:25;18.37;;;7.00;;
38224;SDS011;24025;48.138;11.428;2023-12-07T09:20:57;11.45;;;6.95;;
38224;SDS011;24025;48.138;11.428;2023-12-07T09:23:29;8.47;;;3.13;;
38224;SDS011;24025;48.138;11.428;2023-12-07T09:26:00;4.50;;;2.40;;
38224;SDS011;24025;48.138;11.428;2023-12-07T09:28:32;5.05;;;2.85;;
38224;SDS011;24025;48.138;11.428;2023-12-07T09:31:07;4.38;;;2.65;;
38224;SDS011;24025;48.138;11.428;2023-12-07T09:33:39;3.90;;;2.20;;
38224;SDS011;24025;48.138;11.428;2023-12-07T09:36:10;5.63;;;2.63;;
38224;SDS011;24025;48.138;11.428;2023-12-07T09:38:43;4.93;;;2.45;;
38224;SDS011;24025;48.138;11.428;2023-12-07T09:41:14;5.57;;;2.35;;
38224;SDS011;24025;48.138;11.428;2023-12-07T09:46:18;3.90;;;2.03;;
38224;SDS011;24025;48.138;11.428;2023-12-07T09:48:50;1.48;;;1.27;;
38224;SDS011;24025;48.138;11.428;2023-12-07T09:51:22;4.57;;;1.65;;
38224;SDS011;24025;48.138;11.428;2023-12-07T09:53:57;2.88;;;1.45;;
38224;SDS011;24025;48.138;11.428;2023-12-07T09:56:29;1.90;;;1.20;;
38224;SDS011;24025;48.138;11.428;2023-12-07T09:59:00;2.22;;;1.00;;
38224;SDS011;24025;48.138;11.428;2023-12-07T10:01:32;1.77;;;1.10;;
38224;SDS011;24025;48.138;11.428;2023-12-07T10:04:21;1.63;;;0.93;;
38224;SDS011;24025;48.138;11.428;2023-12-07T10:06:56;5.70;;;1.42;;
38224;SDS011;24025;48.138;11.428;2023-12-07T10:12:04;1.83;;;1.27;;
38224;SDS011;24025;48.138;11.428;2023-12-07T10:17:09;2.13;;;1.10;;
38224;SDS011;24025;48.138;11.428;2023-12-07T10:19:40;1.10;;;0.60;;
38224;SDS011;24025;48.138;11.428;2023-12-07T10:22:13;1.08;;;0.77;;
38224;SDS011;24025;48.138;11.428;2023-12-07T10:24:48;1.50;;;1.05;;
38224;SDS011;24025;48.138;11.428;2023-12-07T10:27:19;1.67;;;0.82;;
38224;SDS011;24025;48.138;11.428;2023-12-07T10:29:52;2.88;;;0.88;;
38224;SDS011;24025;48.138;11.428;2023-12-07T10:32:24;3.70;;;0.90;;
38224;SDS011;24025;48.138;11.428;2023-12-07T10:37:29;2.85;;;0.77;;
38224;SDS011;24025;48.138;11.428;2023-12-07T10:40:02;1.85;;;1.38;;
38224;SDS011;24025;48.138;11.428;2023-12-07T10:42:34;4.75;;;0.85;;
38224;SDS011;24025;48.138;11.428;2023-12-07T10:45:07;3.95;;;1.10;;
38224;SDS011;24025;48.138;11.428;2023-12-07T10:47:40;2.40;;;1.10;;
38224;SDS011;24025;48.138;11.428;2023-12-07T10:50:16;2.78;;;1.27;;
38224;SDS011;24025;48.138;11.428;2023-12-07T10:52:54;5.40;;;1.35;;
38224;SDS011;24025;48.138;11.428;2023-12-07T10:55:31;5.32;;;1.48;;
38224;SDS011;24025;48.138;11.428;2023-12-07T10:58:10;2.55;;;1.10;;
38224;SDS011;24025;48.138;11.428;2023-12-07T11:00:44;4.38;;;1.35;;
38224;SDS011;24025;48.138;11.428;2023-12-07T11:03:18;1.40;;;0.95;;
38224;SDS011;24025;48.138;11.428;2023-12-07T11:05:52;2.72;;;1.50;;
38224;SDS011;24025;48.138;11.428;2023-12-07T11:08:27;2.72;;;1.00;;
38224;SDS011;24025;48.138;11.428;2023-12-07T11:11:06;2.30;;;1.58;;
38224;SDS011;24025;48.138;11.428;2023-12-07T11:13:57;4.72;;;1.38;;
38224;SDS011;24025;48.138;11.428;2023-12-07T11:16:31;1.70;;;1.23;;
38224;SDS011;24025;48.138;11.428;2023-12-07T11:22:09;1.10;;;0.85;;
38224;SDS011;24025;48.138;11.428;2023-12-07T11:24:52;1.60;;;1.30;;
38224;SDS011;24025;48.138;11.428;2023-12-07T11:27:26;2.17;;;1.15;;
38224;SDS011;24025;48.138;11.428;2023-12-07T11:30:01;1.58;;;0.90;;
38224;SDS011;24025;48.138;11.428;2023-12-07T11:32:33;1.67;;;1.20;;
38224;SDS011;24025;48.138;11.428;2023-12-07T11:35:06;1.65;;;1.15;;
38224;SDS011;24025;48.138;11.428;2023-12-07T11:38:03;1.05;;;0.80;;
38224;SDS011;24025;48.138;11.428;2023-12-07T11:40:35;1.98;;;1.05;;
38224;SDS011;24025;48.138;11.428;2023-12-07T11:43:45;2.55;;;1.20;;
38224;SDS011;24025;48.138;11.428;2023-12-07T11:46:15;1.35;;;0.90;;
38224;SDS011;24025;48.138;11.428;2023-12-07T11:48:47;0.90;;;0.73;;
38224;SDS011;24025;48.138;11.428;2023-12-07T11:51:19;1.20;;;0.75;;
38224;SDS011;24025;48.138;11.428;2023-12-07T11:53:51;2.67;;;0.80;;
38224;SDS011;24025;48.138;11.428;2023-12-07T11:56:23;1.50;;;0.95;;
38224;SDS011;24025;48.138;11.428;2023-12-07T11:58:54;2.00;;;1.08;;
38224;SDS011;24025;48.138;11.428;2023-12-07T12:01:28;2.22;;;0.63;;
38224;SDS011;24025;48.138;11.428;2023-12-07T12:04:01;1.70;;;0.77;;
38224;SDS011;24025;48.138;11.428;2023-12-07T12:06:35;1.75;;;1.02;;
38224;SDS011;24025;48.138;11.428;2023-12-07T12:09:08;1.52;;;0.95;;
38224;SDS011;24025;48.138;11.428;2023-12-07T12:11:45;1.92;;;1.10;;
38224;SDS011;24025;48.138;11.428;2023-12-07T12:14:20;1.92;;;1.08;;
38224;SDS011;24025;48.138;11.428;2023-12-07T12:16:52;2.22;;;1.33;;
38224;SDS011;24025;48.138;11.428;2023-12-07T12:19:24;1.52;;;1.10;;
38224;SDS011;24025;48.138;11.428;2023-12-07T12:22:03;2.63;;;1.45;;
38224;SDS011;24025;48.138;11.428;2023-12-07T12:24:38;3.08;;;1.05;;
38224;SDS011;24025;48.138;11.428;2023-12-07T12:27:11;1.73;;;0.95;;
38224;SDS011;24025;48.138;11.428;2023-12-07T12:29:44;4.05;;;1.10;;
38224;SDS011;24025;48.138;11.428;2023-12-07T12:32:16;2.15;;;1.30;;
38224;SDS011;24025;48.138;11.428;2023-12-07T12:34:50;1.60;;;0.90;;
38224;SDS011;24025;48.138;11.428;2023-12-07T12:37:23;1.70;;;1.00;;
38224;SDS011;24025;48.138;11.428;2023-12-07T12:39:55;2.30;;;1.13;;
38224;SDS011;24025;48.138;11.428;2023-12-07T12:42:29;1.33;;;0.80;;
38224;SDS011;24025;48.138;11.428;2023-12-07T12:45:00;2.15;;;1.13;;
38224;SDS011;24025;48.138;11.428;2023-12-07T12:47:34;5.35;;;1.15;;
38224;SDS011;24025;48.138;11.428;2023-12-07T12:50:06;4.35;;;1.25;;
38224;SDS011;24025;48.138;11.428;2023-12-07T12:55:13;1.25;;;1.02;;
38224;SDS011;24025;48.138;11.428;2023-12-07T12:57:45;2.70;;;1.25;;
38224;SDS011;24025;48.138;11.428;2023-12-07T13:00:16;4.45;;;1.20;;
38224;SDS011;24025;48.138;11.428;2023-12-07T13:02:48;2.50;;;1.42;;
38224;SDS011;24025;48.138;11.428;2023-12-07T13:05:20;1.75;;;1.02;;
38224;SDS011;24025;48.138;11.428;2023-12-07T13:07:52;2.13;;;1.20;;
38224;SDS011;24025;48.138;11.428;2023-12-07T13:10:44;1.10;;;0.87;;
38224;SDS011;24025;48.138;11.428;2023-12-07T13:13:15;1.60;;;0.88;;
38224;SDS011;24025;48.138;11.428;2023-12-07T13:15:47;2.20;;;1.45;;
38224;SDS011;24025;48.138;11.428;2023-12-07T13:18:19;2.08;;;0.93;;
38224;SDS011;24025;48.138;11.428;2023-12-07T13:20:51;2.38;;;1.30;;
38224;SDS011;24025;48.138;11.428;2023-12-07T13:23:27;1.80;;;0.90;;
38224;SDS011;24025;48.138;11.428;2023-12-07T13:25:58;3.30;;;1.35;;
38224;SDS011;24025;48.138;11.428;2023-12-07T13:28:30;2.60;;;0.98;;
38224;SDS011;24025;48.138;11.428;2023-12-07T13:31:02;3.22;;;1.30;;
38224;SDS011;24025;48.138;11.428;2023-12-07T13:33:33;1.88;;;0.93;;
38224;SDS011;24025;48.138;11.428;2023-12-07T13:36:20;1.52;;;1.10;;
38224;SDS011;24025;48.138;11.428;2023-12-07T13:38:56;2.83;;;1.13;;
38224;SDS011;24025;48.138;11.428;2023-12-07T13:41:27;2.05;;;1.33;;
38224;SDS011;24025;48.138;11.428;2023-12-07T13:43:59;1.55;;;0.88;;
38224;SDS011;24025;48.138;11.428;2023-12-07T13:46:32;1.38;;;0.85;;
38224;SDS011;24025;48.138;11.428;2023-12-07T13:49:04;3.95;;;1.05;;
38224;SDS011;24025;48.138;11.428;2023-12-07T13:51:40;4.20;;;1.08;;
38224;SDS011;24025;48.138;11.428;2023-12-07T13:54:12;2.80;;;0.90;;
38224;SDS011;24025;48.138;11.428;2023-12-07T13:57:04;2.13;;;1.00;;
38224;SDS011;24025;48.138;11.428;2023-12-07T13:59:36;0.95;;;0.88;;
38224;SDS011;24025;48.138;11.428;2023-12-07T14:02:09;2.78;;;1.50;;
38224;SDS011;24025;48.138;11.428;2023-12-07T14:04:41;3.00;;;1.13;;
38224;SDS011;24025;48.138;11.428;2023-12-07T14:07:16;2.88;;;1.60;;
38224;SDS011;24025;48.138;11.428;2023-12-07T14:09:50;1.33;;;1.00;;
38224;SDS011;24025;48.138;11.428;2023-12-07T14:12:29;3.47;;;1.42;;
38224;SDS011;24025;48.138;11.428;2023-12-07T14:15:01;3.05;;;1.35;;
38224;SDS011;24025;48.138;11.428;2023-12-07T14:17:32;3.03;;;1.10;;
38224;SDS011;24025;48.138;11.428;2023-12-07T14:20:10;3.38;;;1.13;;
38224;SDS011;24025;48.138;11.428;2023-12-07T14:23:02;1.50;;;0.98;;
38224;SDS011;24025;48.138;11.428;2023-12-07T14:25:37;1.85;;;1.13;;
38224;SDS011;24025;48.138;11.428;2023-12-07T14:28:11;3.60;;;1.42;;
38224;SDS011;24025;48.138;11.428;2023-12-07T14:30:44;3.35;;;1.63;;
38224;SDS011;24025;48.138;11.428;2023-12-07T14:33:15;5.15;;;2.78;;
38224;SDS011;24025;48.138;11.428;2023-12-07T14:35:47;3.15;;;1.98;;
38224;SDS011;24025;48.138;11.428;2023-12-07T14:38:20;5.25;;;2.65;;
38224;SDS011;24025;48.138;11.428;2023-12-07T14:40:51;5.55;;;2.60;;
38224;SDS011;24025;48.138;11.428;2023-12-07T14:43:23;3.63;;;1.70;;
38224;SDS011;24025;48.138;11.428;2023-12-07T14:45:55;2.90;;;1.58;;
38224;SDS011;24025;48.138;11.428;2023-12-07T14:48:26;2.70;;;1.23;;
38224;SDS011;24025;48.138;11.428;2023-12-07T14:50:58;2.63;;;1.80;;
38224;SDS011;24025;48.138;11.428;2023-12-07T14:53:30;4.17;;;1.60;;
38224;SDS011;24025;48.138;11.428;2023-12-07T14:56:01;3.75;;;2.10;;
38224;SDS011;24025;48.138;11.428;2023-12-07T14:58:33;5.18;;;2.13;;
38224;SDS011;24025;48.138;11.428;2023-12-07T15:01:06;5.15;;;2.20;;
38224;SDS011;24025;48.138;11.428;2023-12-07T15:03:38;2.97;;;2.20;;
38224;SDS011;24025;48.138;11.428;2023-12-07T15:06:09;2.93;;;1.40;;
38224;SDS011;24025;48.138;11.428;2023-12-07T15:08:41;3.42;;;2.00;;
38224;SDS011;24025;48.138;11.428;2023-12-07T15:11:13;3.88;;;1.75;;
38224;SDS011;24025;48.138;11.428;2023-12-07T15:13:45;2.75;;;1.77;;
38224;SDS011;24025;48.138;11.428;2023-12-07T15:16:17;3.88;;;1.90;;
38224;SDS011;24025;48.138;11.428;2023-12-07T15:18:48;3.07;;;1.97;;
38224;SDS011;24025;48.138;11.428;2023-12-07T15:21:20;5.00;;;2.15;;
38224;SDS011;24025;48.138;11.428;2023-12-07T15:23:52;6.68;;;2.50;;
38224;SDS011;24025;48.138;11.428;2023-12-07T15:26:24;2.80;;;2.00;;
38224;SDS011;24025;48.138;11.428;2023-12-07T15:28:55;5.20;;;2.38;;
38224;SDS011;24025;48.138;11.428;2023-12-07T15:31:31;3.50;;;1.75;;